sensor_id;sensor_type;location;lat;lon;timestamp;P1;durP1;ratioP1;P2;durP2;ratioP2
22675;SDS011;12521;43.310;21.876;2022-07-29T00:03:25;16.0;;;15.0;;
22675;SDS011;12521;43.310;21.876;2022-07-29T00:08:02;14.0;;;14.0;;
22675;SDS011;12521;43.310;21.876;2022-07-29T00:12:39;14.0;;;14.0;;
22675;SDS011;12521;43.310;21.876;2022-07-29T00:17:15;13.0;;;12.0;;
22675;SDS011;12521;43.310;21.876;2022-07-29T00:21:52;13.0;;;12.0;;
22675;SDS011;12521;43.310;21.876;2022-07-29T00:26:28;14.0;;;12.0;;
22675;SDS011;12521;43.310;21.876;2022-07-29T00:31:04;14.0;;;12.0;;
22675;SDS011;12521;43.310;21.876;2022-07-29T00:35:40;14.0;;;12.0;;
22675;SDS011;12521;43.310;21.876;2022-07-29T00:40:16;14.0;;;13.0;;
22675;SDS011;12521;43.310;21.876;2022-07-29T00:44:53;14.0;;;13.0;;
22675;SDS011;12521;43.310;21.876;2022-07-29T00:49:30;14.0;;;12.0;;
22675;SDS011;12521;43.310;21.876;2022-07-29T00:54:07;14.0;;;12.0;;
22675;SDS011;12521;43.310;21.876;2022-07-29T00:58:44;13.0;;;12.0;;
22675;SDS011;12521;43.310;21.876;2022-07-29T01:03:28;13.0;;;12.0;;
22675;SDS011;12521;43.310;21.876;2022-07-29T01:08:05;14.0;;;12.0;;
22675;SDS011;12521;43.310;21.876;2022-07-29T01:12:44;14.0;;;12.0;;
22675;SDS011;12521;43.310;21.876;2022-07-29T01:17:32;14.0;;;13.0;;
22675;SDS011;12521;43.310;21.876;2022-07-29T01:22:53;14.0;;;13.0;;
22675;SDS011;12521;43.310;21.876;2022-07-29T01:28:52;14.0;;;13.0;;
22675;SDS011;12521;43.310;21.876;2022-07-29T01:34:01;14.0;;;13.0;;
22675;SDS011;12521;43.310;21.876;2022-07-29T01:39:07;14.0;;;13.0;;
22675;SDS011;12521;43.310;21.876;2022-07-29T01:44:15;14.0;;;13.0;;
22675;SDS011;12521;43.310;21.876;2022-07-29T01:49:21;14.0;;;13.0;;
22675;SDS011;12521;43.310;21.876;2022-07-29T01:54:29;14.0;;;13.0;;
22675;SDS011;12521;43.310;21.876;2022-07-29T01:59:39;15.0;;;13.0;;
22675;SDS011;12521;43.310;21.876;2022-07-29T02:04:34;15.0;;;13.0;;
22675;SDS011;12521;43.310;21.876;2022-07-29T02:09:27;14.0;;;12.0;;
22675;SDS011;12521;43.310;21.876;2022-07-29T02:14:23;14.0;;;12.0;;
22675;SDS011;12521;43.310;21.876;2022-07-29T02:19:27;13.0;;;12.0;;
22675;SDS011;12521;43.310;21.876;2022-07-29T02:24:22;13.0;;;12.0;;
22675;SDS011;12521;43.310;21.876;2022-07-29T02:29:06;13.0;;;12.0;;
22675;SDS011;12521;43.310;21.876;2022-07-29T02:33:52;13.0;;;12.0;;
22675;SDS011;12521;43.310;21.876;2022-07-29T02:38:32;13.0;;;12.0;;
22675;SDS011;12521;43.310;21.876;2022-07-29T02:43:16;13.0;;;12.0;;
22675;SDS011;12521;43.310;21.876;2022-07-29T02:48:02;12.0;;;12.0;;
22675;SDS011;12521;43.310;21.876;2022-07-29T02:52:58;12.0;;;12.0;;
22675;SDS011;12521;43.310;21.876;2022-07-29T02:57:57;12.0;;;12.0;;
22675;SDS011;12521;43.310;21.876;2022-07-29T03:02:56;12.0;;;12.0;;
22675;SDS011;12521;43.310;21.876;2022-07-29T03:07:55;12.0;;;12.0;;
22675;SDS011;12521;43.310;21.876;2022-07-29T03:12:45;12.0;;;12.0;;
22675;SDS011;12521;43.310;21.876;2022-07-29T03:17:25;12.0;;;12.0;;
22675;SDS011;12521;43.310;21.876;2022-07-29T03:22:06;12.0;;;12.0;;
22675;SDS011;12521;43.310;21.876;2022-07-29T03:26:44;14.0;;;12.0;;
22675;SDS011;12521;43.310;21.876;2022-07-29T03:31:21;14.0;;;12.0;;
22675;SDS011;12521;43.310;21.876;2022-07-29T03:35:57;14.0;;;12.0;;
22675;SDS011;12521;43.310;21.876;2022-07-29T03:40:35;16.0;;;13.0;;
22675;SDS011;12521;43.310;21.876;2022-07-29T03:45:32;16.0;;;13.0;;
22675;SDS011;12521;43.310;21.876;2022-07-29T03:50:13;16.0;;;12.0;;
22675;SDS011;12521;43.310;21.876;2022-07-29T03:54:52;16.0;;;12.0;;
22675;SDS011;12521;43.310;21.876;2022-07-29T03:59:30;15.0;;;12.0;;
22675;SDS011;12521;43.310;21.876;2022-07-29T04:04:12;15.0;;;12.0;;
22675;SDS011;12521;43.310;21.876;2022-07-29T04:08:49;15.0;;;12.0;;
22675;SDS011;12521;43.310;21.876;2022-07-29T04:13:27;15.0;;;12.0;;
22675;SDS011;12521;43.310;21.876;2022-07-29T04:18:04;15.0;;;13.0;;
22675;SDS011;12521;43.310;21.876;2022-07-29T04:22:41;15.0;;;13.0;;
22675;SDS011;12521;43.310;21.876;2022-07-29T04:27:18;15.0;;;13.0;;
22675;SDS011;12521;43.310;21.876;2022-07-29T04:31:55;15.0;;;13.0;;
22675;SDS011;12521;43.310;21.876;2022-07-29T04:36:32;15.0;;;13.0;;
22675;SDS011;12521;43.310;21.876;2022-07-29T04:41:10;15.0;;;13.0;;
22675;SDS011;12521;43.310;21.876;2022-07-29T04:45:47;15.0;;;13.0;;
22675;SDS011;12521;43.310;21.876;2022-07-29T04:50:25;16.0;;;14.0;;
22675;SDS011;12521;43.310;21.876;2022-07-29T04:55:04;16.0;;;14.0;;
22675;SDS011;12521;43.310;21.876;2022-07-29T04:59:45;16.0;;;15.0;;
22675;SDS011;12521;43.310;21.876;2022-07-29T05:04:22;16.0;;;15.0;;
22675;SDS011;12521;43.310;21.876;2022-07-29T05:08:59;15.0;;;14.0;;
22675;SDS011;12521;43.310;21.876;2022-07-29T05:13:35;15.0;;;14.0;;
22675;SDS011;12521;43.310;21.876;2022-07-29T05:18:12;14.0;;;12.0;;
22675;SDS011;12521;43.310;21.876;2022-07-29T05:22:48;14.0;;;12.0;;
22675;SDS011;12521;43.310;21.876;2022-07-29T05:27:24;14.0;;;13.0;;
22675;SDS011;12521;43.310;21.876;2022-07-29T05:32:01;14.0;;;13.0;;
22675;SDS011;12521;43.310;21.876;2022-07-29T05:36:40;14.0;;;13.0;;
22675;SDS011;12521;43.310;21.876;2022-07-29T05:41:17;15.0;;;14.0;;
22675;SDS011;12521;43.310;21.876;2022-07-29T05:45:53;15.0;;;14.0;;
22675;SDS011;12521;43.310;21.876;2022-07-29T05:50:31;17.0;;;16.0;;
22675;SDS011;12521;43.310;21.876;2022-07-29T05:55:08;17.0;;;16.0;;
22675;SDS011;12521;43.310;21.876;2022-07-29T05:59:45;19.0;;;17.0;;
22675;SDS011;12521;43.310;21.876;2022-07-29T06:04:25;19.0;;;17.0;;
22675;SDS011;12521;43.310;21.876;2022-07-29T06:09:02;18.0;;;16.0;;
22675;SDS011;12521;43.310;21.876;2022-07-29T06:13:39;18.0;;;16.0;;
22675;SDS011;12521;43.310;21.876;2022-07-29T06:18:15;17.0;;;14.0;;
22675;SDS011;12521;43.310;21.876;2022-07-29T06:22:52;17.0;;;14.0;;
22675;SDS011;12521;43.310;21.876;2022-07-29T06:27:28;16.0;;;13.0;;
22675;SDS011;12521;43.310;21.876;2022-07-29T06:32:04;16.0;;;13.0;;
22675;SDS011;12521;43.310;21.876;2022-07-29T06:36:41;16.0;;;13.0;;
22675;SDS011;12521;43.310;21.876;2022-07-29T06:41:18;15.0;;;12.0;;
22675;SDS011;12521;43.310;21.876;2022-07-29T06:45:54;15.0;;;12.0;;
22675;SDS011;12521;43.310;21.876;2022-07-29T06:50:31;14.0;;;12.0;;
22675;SDS011;12521;43.310;21.876;2022-07-29T06:55:08;14.0;;;12.0;;
22675;SDS011;12521;43.310;21.876;2022-07-29T06:59:45;13.0;;;12.0;;
22675;SDS011;12521;43.310;21.876;2022-07-29T07:04:23;13.0;;;12.0;;
22675;SDS011;12521;43.310;21.876;2022-07-29T07:09:00;13.0;;;12.0;;
22675;SDS011;12521;43.310;21.876;2022-07-29T07:13:39;13.0;;;12.0;;
22675;SDS011;12521;43.310;21.876;2022-07-29T07:18:15;13.0;;;12.0;;
22675;SDS011;12521;43.310;21.876;2022-07-29T07:22:54;13.0;;;12.0;;
22675;SDS011;12521;43.310;21.876;2022-07-29T07:27:31;12.0;;;12.0;;
22675;SDS011;12521;43.310;21.876;2022-07-29T07:32:08;12.0;;;12.0;;
22675;SDS011;12521;43.310;21.876;2022-07-29T07:36:46;12.0;;;12.0;;
22675;SDS011;12521;43.310;21.876;2022-07-29T07:41:23;12.0;;;11.0;;
22675;SDS011;12521;43.310;21.876;2022-07-29T07:46:01;12.0;;;11.0;;
22675;SDS011;12521;43.310;21.876;2022-07-29T07:50:39;12.0;;;11.0;;
22675;SDS011;12521;43.310;21.876;2022-07-29T07:55:15;12.0;;;11.0;;
22675;SDS011;12521;43.310;21.876;2022-07-29T07:59:54;13.0;;;11.0;;
22675;SDS011;12521;43.310;21.876;2022-07-29T08:04:31;13.0;;;11.0;;
22675;SDS011;12521;43.310;21.876;2022-07-29T08:09:08;12.0;;;11.0;;
22675;SDS011;12521;43.310;21.876;2022-07-29T08:13:45;12.0;;;11.0;;
22675;SDS011;12521;43.310;21.876;2022-07-29T08:18:21;12.0;;;11.0;;
22675;SDS011;12521;43.310;21.876;2022-07-29T08:22:58;12.0;;;11.0;;
22675;SDS011;12521;43.310;21.876;2022-07-29T08:27:35;13.0;;;11.0;;
22675;SDS011;12521;43.310;21.876;2022-07-29T08:32:11;13.0;;;11.0;;
22675;SDS011;12521;43.310;21.876;2022-07-29T08:36:47;13.0;;;11.0;;
22675;SDS011;12521;43.310;21.876;2022-07-29T08:41:24;14.0;;;11.0;;
22675;SDS011;12521;43.310;21.876;2022-07-29T08:46:01;14.0;;;11.0;;
22675;SDS011;12521;43.310;21.876;2022-07-29T08:50:38;13.0;;;10.0;;
22675;SDS011;12521;43.310;21.876;2022-07-29T08:55:21;13.0;;;10.0;;
22675;SDS011;12521;43.310;21.876;2022-07-29T08:59:59;12.0;;;10.0;;
22675;SDS011;12521;43.310;21.876;2022-07-29T09:04:43;12.0;;;10.0;;
22675;SDS011;12521;43.310;21.876;2022-07-29T09:09:23;14.0;;;10.0;;
22675;SDS011;12521;43.310;21.876;2022-07-29T09:13:59;14.0;;;10.0;;
22675;SDS011;12521;43.310;21.876;2022-07-29T09:18:36;15.0;;;10.0;;
22675;SDS011;12521;43.310;21.876;2022-07-29T09:23:22;15.0;;;10.0;;
22675;SDS011;12521;43.310;21.876;2022-07-29T09:28:05;14.0;;;10.0;;
22675;SDS011;12521;43.310;21.876;2022-07-29T09:32:57;14.0;;;10.0;;
22675;SDS011;12521;43.310;21.876;2022-07-29T09:37:39;12.0;;;11.0;;
22675;SDS011;12521;43.310;21.876;2022-07-29T09:42:27;12.0;;;11.0;;
22675;SDS011;12521;43.310;21.876;2022-07-29T09:47:06;12.0;;;10.0;;
22675;SDS011;12521;43.310;21.876;2022-07-29T09:51:44;12.0;;;10.0;;
22675;SDS011;12521;43.310;21.876;2022-07-29T09:56:28;12.0;;;10.0;;
22675;SDS011;12521;43.310;21.876;2022-07-29T10:01:26;12.0;;;10.0;;
22675;SDS011;12521;43.310;21.876;2022-07-29T10:06:06;12.0;;;10.0;;
22675;SDS011;12521;43.310;21.876;2022-07-29T10:10:47;12.0;;;10.0;;
22675;SDS011;12521;43.310;21.876;2022-07-29T10:15:26;12.0;;;10.0;;
22675;SDS011;12521;43.310;21.876;2022-07-29T10:20:19;13.0;;;11.0;;
22675;SDS011;12521;43.310;21.876;2022-07-29T10:25:04;13.0;;;11.0;;
22675;SDS011;12521;43.310;21.876;2022-07-29T10:29:45;13.0;;;11.0;;
22675;SDS011;12521;43.310;21.876;2022-07-29T10:34:23;13.0;;;11.0;;
22675;SDS011;12521;43.310;21.876;2022-07-29T10:40:07;13.0;;;11.0;;
22675;SDS011;12521;43.310;21.876;2022-07-29T10:45:29;13.0;;;11.0;;
22675;SDS011;12521;43.310;21.876;2022-07-29T10:50:07;12.0;;;11.0;;
22675;SDS011;12521;43.310;21.876;2022-07-29T10:54:45;12.0;;;11.0;;
22675;SDS011;12521;43.310;21.876;2022-07-29T10:59:25;12.0;;;11.0;;
22675;SDS011;12521;43.310;21.876;2022-07-29T11:04:02;12.0;;;11.0;;
22675;SDS011;12521;43.310;21.876;2022-07-29T11:08:39;11.0;;;10.0;;
22675;SDS011;12521;43.310;21.876;2022-07-29T11:13:44;11.0;;;10.0;;
22675;SDS011;12521;43.310;21.876;2022-07-29T11:18:26;10.0;;;9.0;;
22675;SDS011;12521;43.310;21.876;2022-07-29T11:23:19;10.0;;;9.0;;
22675;SDS011;12521;43.310;21.876;2022-07-29T11:28:08;11.0;;;10.0;;
22675;SDS011;12521;43.310;21.876;2022-07-29T11:32:57;11.0;;;10.0;;
22675;SDS011;12521;43.310;21.876;2022-07-29T11:37:34;12.0;;;10.0;;
22675;SDS011;12521;43.310;21.876;2022-07-29T11:42:43;12.0;;;10.0;;
22675;SDS011;12521;43.310;21.876;2022-07-29T11:47:25;11.0;;;10.0;;
22675;SDS011;12521;43.310;21.876;2022-07-29T11:52:04;11.0;;;10.0;;
22675;SDS011;12521;43.310;21.876;2022-07-29T11:56:41;11.0;;;10.0;;
22675;SDS011;12521;43.310;21.876;2022-07-29T12:01:24;10.0;;;9.0;;
22675;SDS011;12521;43.310;21.876;2022-07-29T12:06:00;10.0;;;9.0;;
22675;SDS011;12521;43.310;21.876;2022-07-29T12:10:49;11.0;;;10.0;;
22675;SDS011;12521;43.310;21.876;2022-07-29T12:15:28;11.0;;;10.0;;
22675;SDS011;12521;43.310;21.876;2022-07-29T12:20:07;12.0;;;10.0;;
22675;SDS011;12521;43.310;21.876;2022-07-29T12:24:46;12.0;;;10.0;;
22675;SDS011;12521;43.310;21.876;2022-07-29T12:29:24;12.0;;;10.0;;
22675;SDS011;12521;43.310;21.876;2022-07-29T12:34:03;12.0;;;10.0;;
22675;SDS011;12521;43.310;21.876;2022-07-29T12:38:41;12.0;;;10.0;;
22675;SDS011;12521;43.310;21.876;2022-07-29T12:43:21;12.0;;;10.0;;
22675;SDS011;12521;43.310;21.876;2022-07-29T12:48:02;12.0;;;10.0;;
22675;SDS011;12521;43.310;21.876;2022-07-29T12:52:46;12.0;;;10.0;;
22675;SDS011;12521;43.310;21.876;2022-07-29T12:57:24;11.0;;;10.0;;
22675;SDS011;12521;43.310;21.876;2022-07-29T13:02:06;11.0;;;10.0;;
22675;SDS011;12521;43.310;21.876;2022-07-29T13:06:58;11.0;;;10.0;;
22675;SDS011;12521;43.310;21.876;2022-07-29T13:11:43;11.0;;;10.0;;
22675;SDS011;12521;43.310;21.876;2022-07-29T13:16:28;11.0;;;10.0;;
22675;SDS011;12521;43.310;21.876;2022-07-29T13:21:13;11.0;;;10.0;;
22675;SDS011;12521;43.310;21.876;2022-07-29T13:25:51;11.0;;;10.0;;
22675;SDS011;12521;43.310;21.876;2022-07-29T13:30:28;10.0;;;10.0;;
22675;SDS011;12521;43.310;21.876;2022-07-29T13:35:05;10.0;;;10.0;;
22675;SDS011;12521;43.310;21.876;2022-07-29T13:39:45;9.0;;;9.0;;
22675;SDS011;12521;43.310;21.876;2022-07-29T13:44:21;9.0;;;9.0;;
22675;SDS011;12521;43.310;21.876;2022-07-29T13:48:58;10.0;;;10.0;;
22675;SDS011;12521;43.310;21.876;2022-07-29T13:53:34;10.0;;;10.0;;
22675;SDS011;12521;43.310;21.876;2022-07-29T13:58:11;12.0;;;11.0;;
22675;SDS011;12521;43.310;21.876;2022-07-29T14:02:47;12.0;;;11.0;;
22675;SDS011;12521;43.310;21.876;2022-07-29T14:07:23;12.0;;;11.0;;
22675;SDS011;12521;43.310;21.876;2022-07-29T14:12:00;12.0;;;11.0;;
22675;SDS011;12521;43.310;21.876;2022-07-29T14:16:36;12.0;;;11.0;;
22675;SDS011;12521;43.310;21.876;2022-07-29T14:21:13;13.0;;;11.0;;
22675;SDS011;12521;43.310;21.876;2022-07-29T14:25:49;13.0;;;11.0;;
22675;SDS011;12521;43.310;21.876;2022-07-29T14:30:27;12.0;;;11.0;;
22675;SDS011;12521;43.310;21.876;2022-07-29T14:35:03;12.0;;;11.0;;
22675;SDS011;12521;43.310;21.876;2022-07-29T14:39:43;11.0;;;11.0;;
22675;SDS011;12521;43.310;21.876;2022-07-29T14:44:19;11.0;;;11.0;;
22675;SDS011;12521;43.310;21.876;2022-07-29T14:48:56;12.0;;;11.0;;
22675;SDS011;12521;43.310;21.876;2022-07-29T14:53:32;12.0;;;11.0;;
22675;SDS011;12521;43.310;21.876;2022-07-29T14:58:09;12.0;;;11.0;;
22675;SDS011;12521;43.310;21.876;2022-07-29T15:02:46;12.0;;;11.0;;
22675;SDS011;12521;43.310;21.876;2022-07-29T15:07:24;12.0;;;11.0;;
22675;SDS011;12521;43.310;21.876;2022-07-29T15:12:02;12.0;;;11.0;;
22675;SDS011;12521;43.310;21.876;2022-07-29T15:16:41;12.0;;;11.0;;
22675;SDS011;12521;43.310;21.876;2022-07-29T15:21:19;11.0;;;11.0;;
22675;SDS011;12521;43.310;21.876;2022-07-29T15:25:56;11.0;;;11.0;;
22675;SDS011;12521;43.310;21.876;2022-07-29T15:30:33;12.0;;;11.0;;
22675;SDS011;12521;43.310;21.876;2022-07-29T15:35:12;12.0;;;11.0;;
22675;SDS011;12521;43.310;21.876;2022-07-29T15:39:49;12.0;;;11.0;;
22675;SDS011;12521;43.310;21.876;2022-07-29T15:44:26;12.0;;;11.0;;
22675;SDS011;12521;43.310;21.876;2022-07-29T15:49:03;12.0;;;11.0;;
22675;SDS011;12521;43.310;21.876;2022-07-29T15:53:43;12.0;;;11.0;;
22675;SDS011;12521;43.310;21.876;2022-07-29T15:58:19;12.0;;;11.0;;
22675;SDS011;12521;43.310;21.876;2022-07-29T16:02:56;12.0;;;11.0;;
22675;SDS011;12521;43.310;21.876;2022-07-29T16:07:32;12.0;;;11.0;;
22675;SDS011;12521;43.310;21.876;2022-07-29T16:12:08;12.0;;;11.0;;
22675;SDS011;12521;43.310;21.876;2022-07-29T16:16:44;12.0;;;11.0;;
22675;SDS011;12521;43.310;21.876;2022-07-29T16:21:21;12.0;;;11.0;;
22675;SDS011;12521;43.310;21.876;2022-07-29T16:25:57;12.0;;;11.0;;
22675;SDS011;12521;43.310;21.876;2022-07-29T16:30:34;12.0;;;11.0;;
22675;SDS011;12521;43.310;21.876;2022-07-29T16:35:11;12.0;;;11.0;;
22675;SDS011;12521;43.310;21.876;2022-07-29T16:39:48;12.0;;;11.0;;
22675;SDS011;12521;43.310;21.876;2022-07-29T16:44:24;12.0;;;11.0;;
22675;SDS011;12521;43.310;21.876;2022-07-29T16:49:01;12.0;;;12.0;;
22675;SDS011;12521;43.310;21.876;2022-07-29T16:53:38;12.0;;;12.0;;
22675;SDS011;12521;43.310;21.876;2022-07-29T16:58:14;12.0;;;12.0;;
22675;SDS011;12521;43.310;21.876;2022-07-29T17:02:50;12.0;;;12.0;;
22675;SDS011;12521;43.310;21.876;2022-07-29T17:07:27;13.0;;;12.0;;
22675;SDS011;12521;43.310;21.876;2022-07-29T17:12:04;13.0;;;12.0;;
22675;SDS011;12521;43.310;21.876;2022-07-29T17:16:42;13.0;;;12.0;;
22675;SDS011;12521;43.310;21.876;2022-07-29T17:21:19;14.0;;;12.0;;
22675;SDS011;12521;43.310;21.876;2022-07-29T17:26:00;14.0;;;12.0;;
22675;SDS011;12521;43.310;21.876;2022-07-29T17:30:36;14.0;;;12.0;;
22675;SDS011;12521;43.310;21.876;2022-07-29T17:35:13;14.0;;;12.0;;
22675;SDS011;12521;43.310;21.876;2022-07-29T17:39:50;14.0;;;13.0;;
22675;SDS011;12521;43.310;21.876;2022-07-29T17:44:26;14.0;;;13.0;;
22675;SDS011;12521;43.310;21.876;2022-07-29T17:49:04;14.0;;;13.0;;
22675;SDS011;12521;43.310;21.876;2022-07-29T17:53:42;14.0;;;13.0;;
22675;SDS011;12521;43.310;21.876;2022-07-29T17:58:19;13.0;;;13.0;;
22675;SDS011;12521;43.310;21.876;2022-07-29T18:02:57;13.0;;;13.0;;
22675;SDS011;12521;43.310;21.876;2022-07-29T18:07:34;14.0;;;13.0;;
22675;SDS011;12521;43.310;21.876;2022-07-29T18:12:11;14.0;;;13.0;;
22675;SDS011;12521;43.310;21.876;2022-07-29T18:16:47;14.0;;;13.0;;
22675;SDS011;12521;43.310;21.876;2022-07-29T18:21:24;16.0;;;13.0;;
22675;SDS011;12521;43.310;21.876;2022-07-29T18:26:01;16.0;;;13.0;;
22675;SDS011;12521;43.310;21.876;2022-07-29T18:30:40;15.0;;;13.0;;
22675;SDS011;12521;43.310;21.876;2022-07-29T18:35:17;15.0;;;13.0;;
22675;SDS011;12521;43.310;21.876;2022-07-29T18:39:54;14.0;;;13.0;;
22675;SDS011;12521;43.310;21.876;2022-07-29T18:44:30;14.0;;;13.0;;
22675;SDS011;12521;43.310;21.876;2022-07-29T18:49:07;14.0;;;13.0;;
22675;SDS011;12521;43.310;21.876;2022-07-29T18:53:44;14.0;;;13.0;;
22675;SDS011;12521;43.310;21.876;2022-07-29T18:58:20;14.0;;;13.0;;
22675;SDS011;12521;43.310;21.876;2022-07-29T19:02:56;14.0;;;13.0;;
22675;SDS011;12521;43.310;21.876;2022-07-29T19:07:33;14.0;;;12.0;;
22675;SDS011;12521;43.310;21.876;2022-07-29T19:12:10;14.0;;;12.0;;
22675;SDS011;12521;43.310;21.876;2022-07-29T19:16:47;14.0;;;12.0;;
22675;SDS011;12521;43.310;21.876;2022-07-29T19:21:24;13.0;;;12.0;;
22675;SDS011;12521;43.310;21.876;2022-07-29T19:26:00;13.0;;;12.0;;
22675;SDS011;12521;43.310;21.876;2022-07-29T19:30:37;13.0;;;12.0;;
22675;SDS011;12521;43.310;21.876;2022-07-29T19:35:13;13.0;;;12.0;;
22675;SDS011;12521;43.310;21.876;2022-07-29T19:39:50;13.0;;;12.0;;
22675;SDS011;12521;43.310;21.876;2022-07-29T19:44:26;13.0;;;12.0;;
22675;SDS011;12521;43.310;21.876;2022-07-29T19:49:02;13.0;;;12.0;;
22675;SDS011;12521;43.310;21.876;2022-07-29T19:53:39;13.0;;;12.0;;
22675;SDS011;12521;43.310;21.876;2022-07-29T19:58:15;13.0;;;12.0;;
22675;SDS011;12521;43.310;21.876;2022-07-29T20:02:51;13.0;;;12.0;;
22675;SDS011;12521;43.310;21.876;2022-07-29T20:07:28;12.0;;;12.0;;
22675;SDS011;12521;43.310;21.876;2022-07-29T20:12:05;12.0;;;12.0;;
22675;SDS011;12521;43.310;21.876;2022-07-29T20:16:46;12.0;;;12.0;;
22675;SDS011;12521;43.310;21.876;2022-07-29T20:21:24;12.0;;;11.0;;
22675;SDS011;12521;43.310;21.876;2022-07-29T20:26:01;12.0;;;11.0;;
22675;SDS011;12521;43.310;21.876;2022-07-29T20:30:39;13.0;;;12.0;;
22675;SDS011;12521;43.310;21.876;2022-07-29T20:35:17;13.0;;;12.0;;
22675;SDS011;12521;43.310;21.876;2022-07-29T20:39:54;14.0;;;12.0;;
22675;SDS011;12521;43.310;21.876;2022-07-29T20:44:31;14.0;;;12.0;;
22675;SDS011;12521;43.310;21.876;2022-07-29T20:49:09;13.0;;;12.0;;
22675;SDS011;12521;43.310;21.876;2022-07-29T20:53:47;13.0;;;12.0;;
22675;SDS011;12521;43.310;21.876;2022-07-29T20:58:25;12.0;;;12.0;;
22675;SDS011;12521;43.310;21.876;2022-07-29T21:03:02;12.0;;;12.0;;
22675;SDS011;12521;43.310;21.876;2022-07-29T21:07:39;12.0;;;12.0;;
22675;SDS011;12521;43.310;21.876;2022-07-29T21:12:16;12.0;;;12.0;;
22675;SDS011;12521;43.310;21.876;2022-07-29T21:16:53;12.0;;;12.0;;
22675;SDS011;12521;43.310;21.876;2022-07-29T21:21:29;13.0;;;12.0;;
22675;SDS011;12521;43.310;21.876;2022-07-29T21:26:05;13.0;;;12.0;;
22675;SDS011;12521;43.310;21.876;2022-07-29T21:30:43;14.0;;;12.0;;
22675;SDS011;12521;43.310;21.876;2022-07-29T21:35:19;14.0;;;12.0;;
22675;SDS011;12521;43.310;21.876;2022-07-29T21:39:55;14.0;;;12.0;;
22675;SDS011;12521;43.310;21.876;2022-07-29T21:44:32;14.0;;;12.0;;
22675;SDS011;12521;43.310;21.876;2022-07-29T21:49:09;13.0;;;12.0;;
22675;SDS011;12521;43.310;21.876;2022-07-29T21:53:45;13.0;;;12.0;;
22675;SDS011;12521;43.310;21.876;2022-07-29T21:58:22;12.0;;;11.0;;
22675;SDS011;12521;43.310;21.876;2022-07-29T22:02:58;12.0;;;11.0;;
22675;SDS011;12521;43.310;21.876;2022-07-29T22:07:40;13.0;;;12.0;;
22675;SDS011;12521;43.310;21.876;2022-07-29T22:12:17;13.0;;;12.0;;
22675;SDS011;12521;43.310;21.876;2022-07-29T22:16:53;13.0;;;12.0;;
22675;SDS011;12521;43.310;21.876;2022-07-29T22:21:30;14.0;;;13.0;;
22675;SDS011;12521;43.310;21.876;2022-07-29T22:26:06;14.0;;;13.0;;
22675;SDS011;12521;43.310;21.876;2022-07-29T22:30:43;14.0;;;12.0;;
22675;SDS011;12521;43.310;21.876;2022-07-29T22:35:19;14.0;;;12.0;;
22675;SDS011;12521;43.310;21.876;2022-07-29T22:39:55;13.0;;;12.0;;
22675;SDS011;12521;43.310;21.876;2022-07-29T22:44:32;13.0;;;12.0;;
22675;SDS011;12521;43.310;21.876;2022-07-29T22:49:09;14.0;;;13.0;;
22675;SDS011;12521;43.310;21.876;2022-07-29T22:53:46;14.0;;;13.0;;
22675;SDS011;12521;43.310;21.876;2022-07-29T22:58:22;16.0;;;14.0;;
22675;SDS011;12521;43.310;21.876;2022-07-29T23:02:59;16.0;;;14.0;;
22675;SDS011;12521;43.310;21.876;2022-07-29T23:07:36;14.0;;;12.0;;
22675;SDS011;12521;43.310;21.876;2022-07-29T23:12:13;14.0;;;12.0;;
22675;SDS011;12521;43.310;21.876;2022-07-29T23:16:50;14.0;;;12.0;;
22675;SDS011;12521;43.310;21.876;2022-07-29T23:21:27;12.0;;;11.0;;
22675;SDS011;12521;43.310;21.876;2022-07-29T23:26:04;12.0;;;11.0;;
22675;SDS011;12521;43.310;21.876;2022-07-29T23:30:41;13.0;;;12.0;;
22675;SDS011;12521;43.310;21.876;2022-07-29T23:35:19;13.0;;;12.0;;
22675;SDS011;12521;43.310;21.876;2022-07-29T23:39:58;14.0;;;12.0;;
22675;SDS011;12521;43.310;21.876;2022-07-29T23:44:36;14.0;;;12.0;;
22675;SDS011;12521;43.310;21.876;2022-07-29T23:49:14;14.0;;;12.0;;
22675;SDS011;12521;43.310;21.876;2022-07-29T23:53:51;14.0;;;12.0;;
22675;SDS011;12521;43.310;21.876;2022-07-29T23:58:27;14.0;;;12.0;;
